Main page
METAR-TAF:

METAR-TAF

Airports :

Brighton, England

Shoreham Airport

latitude: 50-50N, longitude: 000-17W, elevation: 2 m

Current weather observation

The report was made 57 minutes ago, at 07:50 UTC
Wind 6 kt from the West
Temperature 16°C
Humidity 72%
Pressure 1021 hPa
Visibility 10 km or more
no clouds below 1500 m and no cumulonimbus

METAR: EGKA 230750Z 28006KT CAVOK 16/11 Q1021

Time: 09:47 (08:47 UTC)

Forecast

The report was made 46 minutes ago, at 08:01 UTC
Forecast valid from 23 at 09 UTC to 23 at 18 UTC
Wind 8 kt from the West
Visibility 10 km or more
Few clouds at a height of 4500 ft
Becoming
from 23 at 10 UTC to 23 at 13 UTC
Wind 10 kt from the Southwest

TAF: EGKA 230801Z 2309/2318 28008KT 9999 FEW045 BECMG 2310/2313 22010KT

Weather observations and forecasts of more than 4000 airports (METAR and TAF reports).

The available stations are represented by yellow and red dots on the map.

Hover mouse over dot to see the name of the station.

Then click to see weather observations and forecasts.

To change the map : click on the green buttons with a black cross to zoom in, on the green button with a dash to zoom out, or on the green arrows for adjacent maps.


METAR-TAF: